Cold Bay, AK (99571)

8:43 PM AKDT on September 02, 2015 (GMT -0800)
Cold Bay | | Change Station
CLOSE
Current Station
Airport
Location: Cold Bay,
Elevation: 102 ft
Nearby Weather Stations

Elev 102 ft 55.22 °N, 162.73 °W | Updated 6 minutes ago

Rain
Rain Mist
56 °F
Feels Like 56 °F
N
6
Wind Variable Wind from SE

Today
High -- | Low -- °F
--% Chance of Precip.
Yesterday
High -- | Low -- °F
Precip. -- in
7:58 AM 9:41 PM
Waning Gibbous, 74% visible
Pressure 29.76 in
Visibility 1.8 miles
Clouds Few 400 ft
Few 800 ft
Overcast 1400 ft
Dew Point 56 °F
Humidity 100%
Rainfall 0.35 in
Snow Depth Not available.
UV 0 out of 12
Pollen Not available.
Air Quality Not available.
Flu Activity Not available.
SPECI PACD 030437Z AUTO 13005KT 1 3/4SM RA BR FEW004 FEW008 OVC014 13/13 A2976 RMK AO2 P0007 T01330133 TSNO
Pressure 29.76 in
Visibility 1.8 miles
Clouds Few 400 ft
Few 800 ft
Overcast 1400 ft
Dew Point 56 °F
Humidity 100%
Rainfall 0.35 in
Snow Depth Not available.
UV 0 out of 12
Pollen Not available.
Air Quality Not available.
Flu Activity Not available.
SPECI PACD 030437Z AUTO 13005KT 1 3/4SM RA BR FEW004 FEW008 OVC014 13/13 A2976 RMK AO2 P0007 T01330133 TSNO

10-Day Weather Forecast

×

Almanac

Astronomy

Sep. 02, 2015 Rise Set
Actual Time
Civil Twilight
Nautical Twilight
Astronomical Twilight
Moon
Length of Visible Light
Length of Day
Tomorrow will be .
, % of the Moon is Illuminated

Today's Extremes

State Highs State Lows

Community

WunderPhotos

Upload Photos

1,851,913 photos uploaded!

WunderBlogs® & News

Nearby

Air Quality

  Air Quality AQ Index Pollutant
Not available.

Snow Depth

Station Depth Elevation

Earthquake Activity

City Distance Mag. Time & Date
Minimum magnitude displayed is 2.5.

Coastal Water Temperatures

Place Temperature

Stations

Nearby Weather Stations

Station Location Temp. Windchill Dew Point Humidity Wind Precip. Elev Updated Type